Time,TemperatureF,DewpointF,PressureIn,WindDirection,WindDirectionDegrees,WindSpeedMPH,WindSpeedGustMPH,Humidity,HourlyPrecipIn,Conditions,Clouds,dailyrainin,SoftwareType,DateUTC
2013-06-12 00:01:00,43.0,43.0,-100.00,East,99,14.0,17.0,100,0.00,,,-99.99,,2013-06-12 06:01:00,
2013-06-12 00:11:00,44.0,44.0,-100.00,ESE,102,12.0,16.0,100,0.00,,,-99.99,,2013-06-12 06:11:00,
2013-06-12 00:21:00,45.0,44.0,-100.00,ESE,102,10.0,13.0,97,0.00,,,-99.99,,2013-06-12 06:21:00,
2013-06-12 00:31:00,45.0,44.0,-100.00,East,95,9.0,12.0,93,0.00,,,-99.99,,2013-06-12 06:31:00,
2013-06-12 00:42:00,46.0,44.0,-100.00,ENE,78,10.0,12.0,93,0.00,,,-99.99,,2013-06-12 06:42:00,
2013-06-12 00:51:00,47.0,44.0,-100.00,East,80,11.0,14.0,90,0.00,,,-99.99,,2013-06-12 06:51:00,
2013-06-12 01:02:00,-999.0,-99.9,-100.00,East,97,12.0,14.0,-999,-99.99,,,-99.99,,2013-06-12 07:02:00,
2013-06-12 01:12:00,48.0,43.0,-100.00,ESE,109,11.0,13.0,82,0.00,,,-99.99,,2013-06-12 07:12:00,
2013-06-12 01:22:00,48.0,42.0,-100.00,ESE,106,9.0,11.0,79,0.00,,,-99.99,,2013-06-12 07:22:00,
2013-06-12 01:33:00,49.0,42.0,-100.00,East,86,7.0,9.0,77,0.00,,,-99.99,,2013-06-12 07:33:00,
2013-06-12 01:43:00,49.0,41.0,-100.00,East,83,6.0,8.0,73,0.00,,,-99.99,,2013-06-12 07:43:00,
2013-06-12 01:53:00,49.0,40.0,-100.00,East,80,7.0,9.0,72,0.00,,,-99.99,,2013-06-12 07:53:00,
2013-06-12 02:02:00,49.0,40.0,-100.00,ENE,76,7.0,9.0,72,0.00,,,-99.99,,2013-06-12 08:02:00,
2013-06-12 02:12:00,49.0,40.0,-100.00,ENE,69,8.0,11.0,72,0.00,,,-99.99,,2013-06-12 08:12:00,
2013-06-12 02:22:00,48.0,40.0,-100.00,ENE,61,9.0,11.0,73,0.00,,,-99.99,,2013-06-12 08:22:00,
2013-06-12 02:33:00,49.0,40.0,-100.00,NE,55,9.0,11.0,73,0.00,,,-99.99,,2013-06-12 08:33:00,
2013-06-12 02:43:00,49.0,40.0,-100.00,NE,41,8.0,11.0,72,0.00,,,-99.99,,2013-06-12 08:43:00,
2013-06-12 02:53:00,49.0,40.0,-100.00,NE,48,9.0,11.0,72,0.00,,,-99.99,,2013-06-12 08:53:00,
2013-06-12 03:01:00,50.0,40.0,-100.00,NE,52,7.0,12.0,69,0.00,,,-99.99,,2013-06-12 09:01:00,
2013-06-12 03:11:00,49.0,40.0,-100.00,NE,48,7.0,10.0,71,0.00,,,-99.99,,2013-06-12 09:11:00,
2013-06-12 03:22:00,49.0,40.0,-100.00,NE,54,7.0,9.0,69,0.00,,,-99.99,,2013-06-12 09:22:00,
2013-06-12 03:33:00,49.0,40.0,-100.00,NE,55,7.0,9.0,70,0.00,,,-99.99,,2013-06-12 09:33:00,
2013-06-12 03:42:00,49.0,40.0,-100.00,NE,55,7.0,9.0,71,0.00,,,-99.99,,2013-06-12 09:42:00,
2013-06-12 03:53:00,48.0,40.0,-100.00,NE,55,7.0,9.0,72,0.00,,,-99.99,,2013-06-12 09:53:00,
2013-06-12 04:01:00,49.0,40.0,-100.00,ENE,66,7.0,9.0,69,0.00,,,-99.99,,2013-06-12 10:01:00,
2013-06-12 04:11:00,49.0,40.0,-100.00,ENE,61,7.0,9.0,69,0.00,,,-99.99,,2013-06-12 10:11:00,
2013-06-12 04:23:00,48.0,40.0,-100.00,NE,52,7.0,11.0,72,0.00,,,-99.99,,2013-06-12 10:23:00,
2013-06-12 04:33:00,48.0,40.0,-100.00,ENE,68,9.0,12.0,73,0.00,,,-99.99,,2013-06-12 10:33:00,
2013-06-12 04:43:00,48.0,40.0,-100.00,ENE,71,10.0,14.0,72,0.00,,,-99.99,,2013-06-12 10:43:00,
2013-06-12 04:53:00,48.0,40.0,-100.00,ENE,64,10.0,12.0,73,-99.99,,,-99.99,,2013-06-12 10:53:00,
2013-06-12 05:02:00,47.0,40.0,-100.00,ENE,71,11.0,12.0,74,-99.99,,,-99.99,,2013-06-12 11:02:00,
2013-06-12 05:12:00,47.0,40.0,-100.00,ENE,72,12.0,15.0,75,0.00,,,-99.99,,2013-06-12 11:12:00,
2013-06-12 05:24:00,47.0,40.0,-100.00,ENE,73,12.0,15.0,75,0.00,,,-99.99,,2013-06-12 11:24:00,
2013-06-12 05:33:00,47.0,40.0,-100.00,ENE,72,13.0,16.0,74,0.00,,,-99.99,,2013-06-12 11:33:00,
2013-06-12 05:43:00,48.0,40.0,-100.00,ENE,72,12.0,16.0,74,0.00,,,-99.99,,2013-06-12 11:43:00,
2013-06-12 05:53:00,47.0,39.0,-100.00,ENE,75,14.0,17.0,75,0.00,,,-99.99,,2013-06-12 11:53:00,
2013-06-12 06:01:00,48.0,40.0,-100.00,ENE,76,14.0,17.0,73,0.00,,,-99.99,,2013-06-12 12:01:00,
2013-06-12 06:11:00,47.0,39.0,-100.00,ENE,78,12.0,16.0,75,0.00,,,-99.99,,2013-06-12 12:11:00,
2013-06-12 06:23:00,47.0,40.0,-100.00,ENE,76,12.0,15.0,74,0.00,,,-99.99,,2013-06-12 12:23:00,
2013-06-12 06:33:00,48.0,40.0,-100.00,ENE,75,11.0,14.0,73,0.00,,,-99.99,,2013-06-12 12:33:00,
2013-06-12 06:42:00,48.0,40.0,-100.00,ENE,73,9.0,14.0,72,0.00,,,-99.99,,2013-06-12 12:42:00,
2013-06-12 06:53:00,49.0,41.0,-100.00,ENE,69,9.0,12.0,73,0.00,,,-99.99,,2013-06-12 12:53:00,
2013-06-12 07:01:00,49.0,40.0,-100.00,ENE,78,9.0,11.0,71,0.00,,,-99.99,,2013-06-12 13:01:00,
2013-06-12 07:12:00,50.0,40.0,-100.00,ENE,71,8.0,11.0,69,0.00,,,-99.99,,2013-06-12 13:12:00,
2013-06-12 07:22:00,49.0,40.0,-100.00,ENE,66,9.0,13.0,70,0.00,,,-99.99,,2013-06-12 13:22:00,
2013-06-12 07:32:00,50.0,40.0,-100.00,ENE,62,9.0,12.0,70,0.00,,,-99.99,,2013-06-12 13:32:00,
2013-06-12 07:43:00,50.0,40.0,-100.00,ENE,66,7.0,12.0,70,0.00,,,-99.99,,2013-06-12 13:43:00,
2013-06-12 07:53:00,-999.0,-99.9,-100.00,NNW,332,6.0,17.0,-999,-99.99,,,-99.99,,2013-06-12 13:53:00,
2013-06-12 08:01:00,46.0,42.0,-100.00,West,260,12.0,19.0,86,0.24,,,-99.99,,2013-06-12 14:01:00,
2013-06-12 08:11:00,46.0,41.0,-100.00,WSW,256,9.0,19.0,83,0.03,,,-99.99,,2013-06-12 14:11:00,
2013-06-12 08:23:00,47.0,39.0,-100.00,SW,226,6.0,12.0,74,-99.99,,,-99.99,,2013-06-12 14:23:00,
2013-06-12 08:33:00,48.0,40.0,-100.00,SW,217,11.0,17.0,74,0.00,,,-99.99,,2013-06-12 14:33:00,
2013-06-12 08:43:00,47.0,41.0,-100.00,WSW,247,12.0,19.0,77,0.01,,,-99.99,,2013-06-12 14:43:00,
2013-06-12 08:53:00,49.0,40.0,-100.00,SSW,208,7.0,15.0,72,0.00,,,-99.99,,2013-06-12 14:53:00,
2013-06-12 09:01:00,49.0,40.0,-100.00,SW,217,7.0,11.0,70,0.00,,,-99.99,,2013-06-12 15:01:00,
2013-06-12 09:12:00,52.0,44.0,-100.00,South,181,6.0,9.0,72,0.00,,,-99.99,,2013-06-12 15:12:00,
2013-06-12 09:23:00,52.0,40.0,-100.00,WNW,282,2.0,6.0,63,0.00,,,-99.99,,2013-06-12 15:23:00,
2013-06-12 09:33:00,52.0,43.0,-100.00,WSW,253,3.0,6.0,71,0.00,,,-99.99,,2013-06-12 15:33:00,
2013-06-12 09:43:00,51.0,44.0,-100.00,West,270,3.0,6.0,75,0.00,,,-99.99,,2013-06-12 15:43:00,
2013-06-12 09:52:00,53.0,42.0,-100.00,West,261,2.0,6.0,67,0.00,,,-99.99,,2013-06-12 15:52:00,
2013-06-12 10:01:00,53.0,44.0,-100.00,West,263,4.0,7.0,74,0.00,,,-99.99,,2013-06-12 16:01:00,
2013-06-12 10:11:00,52.0,42.0,-100.00,West,260,5.0,9.0,69,0.00,,,-99.99,,2013-06-12 16:11:00,
2013-06-12 10:22:00,53.0,43.0,-100.00,WSW,256,6.0,9.0,69,0.00,,,-99.99,,2013-06-12 16:22:00,
2013-06-12 10:32:00,53.0,43.0,-100.00,WSW,256,6.0,9.0,69,0.00,,,-99.99,,2013-06-12 16:32:00,
2013-06-12 10:43:00,55.0,42.0,-100.00,West,270,6.0,11.0,61,0.00,,,-99.99,,2013-06-12 16:43:00,
2013-06-12 10:52:00,55.0,42.0,-100.00,West,270,6.0,10.0,61,0.00,,,-99.99,,2013-06-12 16:52:00,
2013-06-12 11:01:00,56.0,42.0,-100.00,West,271,6.0,10.0,60,0.00,,,-99.99,,2013-06-12 17:01:00,
2013-06-12 11:11:00,57.0,43.0,-100.00,West,270,6.0,11.0,60,0.00,,,-99.99,,2013-06-12 17:11:00,
2013-06-12 11:22:00,57.0,42.0,-100.00,West,267,7.0,12.0,55,0.00,,,-99.99,,2013-06-12 17:22:00,
2013-06-12 11:33:00,57.0,42.0,-100.00,West,268,7.0,11.0,55,0.00,,,-99.99,,2013-06-12 17:33:00,
2013-06-12 11:42:00,58.0,41.0,-100.00,West,263,6.0,10.0,54,0.00,,,-99.99,,2013-06-12 17:42:00,
2013-06-12 11:52:00,-999.0,-99.9,-100.00,WNW,301,4.0,8.0,-999,-99.99,,,-99.99,,2013-06-12 17:52:00,
2013-06-12 12:02:00,56.0,47.0,-100.00,NNW,347,3.0,7.0,70,0.00,,,-99.99,,2013-06-12 18:02:00,
2013-06-12 12:12:00,52.0,50.0,-100.00,ENE,66,10.0,14.0,89,0.00,,,-99.99,,2013-06-12 18:12:00,
2013-06-12 12:22:00,52.0,50.0,-100.00,NE,55,12.0,14.0,92,0.00,,,-99.99,,2013-06-12 18:22:00,
2013-06-12 12:32:00,52.0,48.0,-100.00,ENE,75,10.0,14.0,85,0.00,,,-99.99,,2013-06-12 18:32:00,
2013-06-12 12:43:00,52.0,48.0,-100.00,ENE,75,10.0,14.0,85,0.00,,,-99.99,,2013-06-12 18:43:00,
2013-06-12 12:53:00,54.0,44.0,-100.00,East,89,9.0,14.0,69,0.00,,,-99.99,,2013-06-12 18:53:00,
2013-06-12 13:01:00,55.0,45.0,-100.00,ENE,75,8.0,14.0,69,0.00,,,-99.99,,2013-06-12 19:01:00,
2013-06-12 13:11:00,57.0,47.0,-100.00,East,80,3.0,7.0,70,0.00,,,-99.99,,2013-06-12 19:11:00,
2013-06-12 13:22:00,54.0,49.0,-100.00,ESE,104,8.0,13.0,81,0.00,,,-99.99,,2013-06-12 19:22:00,
2013-06-12 13:32:00,56.0,48.0,-100.00,East,90,6.0,10.0,75,0.00,,,-99.99,,2013-06-12 19:32:00,
2013-06-12 13:42:00,57.0,49.0,-100.00,NE,47,3.0,7.0,73,-99.99,,,-99.99,,2013-06-12 19:42:00,
2013-06-12 13:52:00,62.0,47.0,-100.00,WSW,248,7.0,15.0,58,0.00,,,-99.99,,2013-06-12 19:52:00,
2013-06-12 14:01:00,62.0,40.0,-100.00,West,265,6.0,15.0,45,0.00,,,-99.99,,2013-06-12 20:01:00,
2013-06-12 14:11:00,62.0,42.0,-100.00,SW,222,5.0,19.0,48,0.00,,,-99.99,,2013-06-12 20:11:00,
2013-06-12 14:21:00,63.0,37.0,-100.00,SW,234,9.0,22.0,39,0.00,,,-99.99,,2013-06-12 20:21:00,
2013-06-12 14:32:00,64.0,35.0,-100.00,SW,226,12.0,22.0,34,0.00,,,-99.99,,2013-06-12 20:32:00,
2013-06-12 14:42:00,61.0,35.0,-100.00,SW,215,11.0,20.0,37,0.00,,,-99.99,,2013-06-12 20:42:00,
2013-06-12 14:54:00,61.0,35.0,-100.00,SW,229,12.0,21.0,38,0.00,,,-99.99,,2013-06-12 20:54:00,
2013-06-12 15:01:00,62.0,37.0,-100.00,SW,234,7.0,13.0,39,0.00,,,-99.99,,2013-06-12 21:01:00,
2013-06-12 15:11:00,62.0,38.0,-100.00,West,267,5.0,16.0,40,-99.99,,,-99.99,,2013-06-12 21:11:00,
2013-06-12 15:22:00,57.0,45.0,-100.00,NE,35,6.0,12.0,63,0.00,,,-99.99,,2013-06-12 21:22:00,
2013-06-12 15:33:00,57.0,42.0,-100.00,NNW,328,7.0,13.0,57,0.00,,,-99.99,,2013-06-12 21:33:00,
2013-06-12 15:43:00,57.0,42.0,-100.00,NW,322,7.0,13.0,57,0.00,,,-99.99,,2013-06-12 21:43:00,
2013-06-12 15:52:00,56.0,42.0,-100.00,NW,319,8.0,14.0,59,0.00,,,-99.99,,2013-06-12 21:52:00,
2013-06-12 16:01:00,54.0,47.0,-100.00,North,3,6.0,12.0,76,0.00,,,-99.99,,2013-06-12 22:01:00,
2013-06-12 16:11:00,52.0,45.0,-100.00,NE,44,7.0,11.0,78,0.00,,,-99.99,,2013-06-12 22:11:00,
2013-06-12 16:22:00,53.0,43.0,-100.00,North,354,6.0,14.0,69,0.58,,,-99.99,,2013-06-12 22:22:00,
2013-06-12 16:32:00,52.0,46.0,-100.00,West,280,6.0,19.0,80,0.04,,,-99.99,,2013-06-12 22:32:00,
2013-06-12 16:43:00,-999.0,-99.9,-100.00,West,264,10.0,21.0,-999,-99.99,,,-99.99,,2013-06-12 22:43:00,
2013-06-12 16:52:00,50.0,43.0,-100.00,West,272,12.0,29.0,78,0.00,,,-99.99,,2013-06-12 22:52:00,
2013-06-12 17:01:00,50.0,42.0,-100.00,West,272,12.0,24.0,73,0.00,,,-99.99,,2013-06-12 23:01:00,
2013-06-12 17:12:00,-999.0,-99.9,-100.00,West,263,9.0,17.0,-999,-99.99,,,-99.99,,2013-06-12 23:12:00,
2013-06-12 17:22:00,51.0,43.0,-100.00,West,278,12.0,20.0,73,0.00,,,-99.99,,2013-06-12 23:22:00,
2013-06-12 17:32:00,53.0,44.0,-100.00,West,271,12.0,21.0,72,0.00,,,-99.99,,2013-06-12 23:32:00,
2013-06-12 17:42:00,53.0,44.0,-100.00,West,271,12.0,21.0,72,0.00,,,-99.99,,2013-06-12 23:42:00,
2013-06-12 17:52:00,55.0,42.0,-100.00,West,267,15.0,21.0,61,0.00,,,-99.99,,2013-06-12 23:52:00,
2013-06-12 18:01:00,53.0,41.0,-100.00,West,265,17.0,24.0,61,0.00,,,-99.99,,2013-06-13 00:01:00,
2013-06-12 18:11:00,54.0,40.0,-100.00,West,268,13.0,23.0,59,0.00,,,-99.99,,2013-06-13 00:11:00,
2013-06-12 18:22:00,54.0,40.0,-100.00,West,267,12.0,19.0,58,0.00,,,-99.99,,2013-06-13 00:22:00,
2013-06-12 18:32:00,53.0,41.0,-100.00,West,274,9.0,16.0,64,0.00,,,-99.99,,2013-06-13 00:32:00,
2013-06-12 18:42:00,53.0,39.0,-100.00,West,274,9.0,18.0,59,0.00,,,-99.99,,2013-06-13 00:42:00,
2013-06-12 18:52:00,55.0,40.0,-100.00,WSW,254,18.0,27.0,55,0.00,,,-99.99,,2013-06-13 00:52:00,
2013-06-12 19:01:00,56.0,41.0,-100.00,West,261,19.0,27.0,56,0.00,,,-99.99,,2013-06-13 01:01:00,
2013-06-12 19:12:00,54.0,37.0,-100.00,West,261,21.0,39.0,52,0.00,,,-99.99,,2013-06-13 01:12:00,
2013-06-12 19:22:00,54.0,37.0,-100.00,West,263,21.0,32.0,53,0.00,,,-99.99,,2013-06-13 01:22:00,
2013-06-12 19:32:00,54.0,36.0,-100.00,WSW,258,22.0,35.0,52,0.00,,,-99.99,,2013-06-13 01:32:00,
2013-06-12 19:43:00,54.0,36.0,-100.00,WSW,256,21.0,29.0,51,0.00,,,-99.99,,2013-06-13 01:43:00,
2013-06-12 19:53:00,54.0,37.0,-100.00,WSW,247,23.0,30.0,52,0.00,,,-99.99,,2013-06-13 01:53:00,
2013-06-12 20:01:00,54.0,36.0,-100.00,WSW,248,24.0,30.0,50,0.00,,,-99.99,,2013-06-13 02:01:00,
2013-06-12 20:11:00,54.0,38.0,-100.00,WSW,258,22.0,33.0,53,0.13,,,-99.99,,2013-06-13 02:11:00,
2013-06-12 20:22:00,53.0,38.0,-100.00,West,264,17.0,30.0,56,0.04,,,-99.99,,2013-06-13 02:22:00,
2013-06-12 20:33:00,53.0,36.0,-100.00,WSW,257,22.0,31.0,52,0.00,,,-99.99,,2013-06-13 02:33:00,
2013-06-12 20:42:00,53.0,36.0,-100.00,WSW,258,24.0,39.0,51,0.00,,,-99.99,,2013-06-13 02:42:00,
2013-06-12 20:52:00,53.0,36.0,-100.00,WSW,251,31.0,46.0,53,0.00,,,-99.99,,2013-06-13 02:52:00,
2013-06-12 21:01:00,52.0,36.0,-100.00,WSW,251,29.0,44.0,54,0.00,,,-99.99,,2013-06-13 03:01:00,
2013-06-12 21:11:00,52.0,36.0,-100.00,WSW,247,30.0,43.0,54,0.00,,,-99.99,,2013-06-13 03:11:00,
2013-06-12 21:22:00,51.0,36.0,-100.00,WSW,247,24.0,35.0,55,0.00,,,-99.99,,2013-06-13 03:22:00,
2013-06-12 21:33:00,51.0,36.0,-100.00,WSW,254,22.0,32.0,57,0.00,,,-99.99,,2013-06-13 03:33:00,
2013-06-12 21:42:00,51.0,36.0,-100.00,WSW,254,21.0,28.0,57,0.00,,,-99.99,,2013-06-13 03:42:00,
2013-06-12 21:52:00,50.0,36.0,-100.00,West,260,19.0,29.0,59,0.00,,,-99.99,,2013-06-13 03:52:00,
2013-06-12 22:01:00,49.0,37.0,-100.00,West,261,19.0,29.0,61,0.00,,,-99.99,,2013-06-13 04:01:00,
2013-06-12 22:11:00,49.0,37.0,-100.00,West,270,16.0,23.0,63,0.00,,,-99.99,,2013-06-13 04:11:00,
2013-06-12 22:22:00,48.0,37.0,-100.00,West,267,17.0,23.0,65,0.00,,,-99.99,,2013-06-13 04:22:00,
2013-06-12 22:32:00,48.0,37.0,-100.00,West,264,18.0,26.0,64,0.00,,,-99.99,,2013-06-13 04:32:00,
2013-06-12 22:43:00,48.0,37.0,-100.00,West,261,18.0,26.0,65,0.00,,,-99.99,,2013-06-13 04:43:00,
2013-06-12 22:54:00,-999.0,-99.9,-100.00,WSW,257,17.0,24.0,-999,-99.99,,,-99.99,,2013-06-13 04:54:00,
2013-06-12 23:02:00,47.0,37.0,-100.00,WSW,258,16.0,24.0,67,0.00,,,-99.99,,2013-06-13 05:02:00,
2013-06-12 23:11:00,47.0,37.0,-100.00,West,261,12.0,18.0,69,0.00,,,-99.99,,2013-06-13 05:11:00,
2013-06-12 23:23:00,47.0,37.0,-100.00,West,265,11.0,16.0,69,0.00,,,-99.99,,2013-06-13 05:23:00,
2013-06-12 23:33:00,47.0,37.0,-100.00,West,268,12.0,17.0,68,0.00,,,-99.99,,2013-06-13 05:33:00,
2013-06-12 23:42:00,47.0,37.0,-100.00,West,265,13.0,17.0,69,0.00,,,-99.99,,2013-06-13 05:42:00,
2013-06-12 23:53:00,47.0,37.0,-100.00,West,263,14.0,17.0,69,0.00,,,-99.99,,2013-06-13 05:53:00,